createdAt,value
2023-03-23T16:01:39.115Z,15.90
2023-03-23T16:06:44.131Z,16.00
2023-03-23T16:11:47.911Z,16.00
2023-03-23T16:16:53.820Z,15.90
2023-03-23T16:21:57.772Z,16.00
2023-03-23T16:27:01.355Z,16.00
2023-03-23T16:32:06.588Z,15.70
2023-03-23T16:37:10.531Z,15.60
2023-03-23T16:42:13.754Z,15.50
2023-03-23T16:47:23.308Z,15.50
2023-03-23T16:52:27.268Z,15.50
2023-03-23T16:57:30.664Z,15.50
2023-03-23T17:02:35.494Z,15.40
2023-03-23T17:07:39.336Z,15.30
2023-03-23T17:12:42.804Z,15.30
2023-03-23T17:17:47.698Z,15.20
2023-03-23T17:22:51.828Z,15.00
2023-03-23T17:27:55.784Z,14.60
2023-03-23T17:33:11.582Z,14.40
2023-03-23T17:38:14.880Z,14.20
2023-03-23T17:43:18.536Z,14.00
2023-03-23T17:48:23.528Z,13.90
2023-03-23T17:53:27.238Z,13.80
2023-03-23T17:58:30.472Z,13.70
2023-03-23T18:03:36.052Z,13.70
2023-03-23T18:08:39.953Z,14.30
2023-03-23T18:13:43.267Z,13.50
2023-03-23T18:18:48.326Z,13.50
2023-03-23T18:23:59.245Z,13.40
2023-03-23T18:29:03.092Z,13.30
2023-03-23T18:34:08.509Z,13.30
2023-03-23T18:39:12.348Z,13.20
2023-03-23T18:44:16.242Z,13.20
2023-03-23T18:49:20.812Z,13.20
2023-03-23T18:54:24.117Z,13.20
2023-03-23T18:59:30.298Z,13.30
2023-03-23T19:04:34.925Z,13.30
2023-03-23T19:09:39.389Z,13.40
2023-03-23T19:14:42.679Z,13.50
2023-03-23T19:19:47.632Z,13.60
2023-03-23T19:24:50.973Z,13.70
2023-03-23T19:29:54.386Z,13.70
2023-03-23T19:34:59.272Z,13.60
2023-03-23T19:40:09.585Z,13.40
2023-03-23T19:45:21.468Z,13.40
2023-03-23T19:50:26.465Z,13.20
2023-03-23T19:55:29.797Z,13.10
2023-03-23T20:00:34.854Z,13.00
2023-03-23T20:05:41.274Z,12.90
2023-03-23T20:10:44.850Z,12.90
2023-03-23T20:15:53.278Z,12.70
2023-03-23T20:21:03.883Z,12.70
2023-03-23T20:26:12.282Z,12.60
2023-03-23T20:31:24.338Z,12.60
2023-03-23T20:36:34.982Z,12.60
2023-03-23T20:41:40.376Z,12.60
2023-03-23T20:46:44.549Z,12.50
2023-03-23T20:51:49.616Z,12.50
2023-03-23T20:56:55.676Z,12.40
2023-03-23T21:01:59.930Z,12.40
2023-03-23T21:07:04.802Z,12.30
2023-03-23T21:12:09.521Z,12.30
2023-03-23T21:17:13.276Z,12.30
2023-03-23T21:22:19.632Z,12.30
2023-03-23T21:27:22.721Z,12.30
2023-03-23T21:32:25.968Z,12.20
2023-03-23T21:37:31.216Z,12.10
2023-03-23T21:42:34.662Z,12.10
2023-03-23T21:47:38.876Z,12.10
2023-03-23T21:52:44.398Z,12.10
2023-03-23T21:57:48.017Z,12.10
2023-03-23T22:02:53.244Z,12.10
2023-03-23T22:07:58.272Z,12.10
2023-03-23T22:13:01.652Z,12.10
2023-03-23T22:18:05.463Z,12.10
2023-03-23T22:23:10.686Z,12.00
2023-03-23T22:28:14.217Z,12.10
2023-03-23T22:33:18.007Z,12.00
2023-03-23T22:38:23.202Z,12.00
2023-03-23T22:43:27.068Z,12.10
2023-03-23T22:48:30.440Z,12.10
2023-03-23T22:53:35.553Z,12.10
2023-03-23T22:58:39.600Z,12.10
2023-03-23T23:03:43.582Z,12.10
2023-03-23T23:08:49.459Z,12.10
2023-03-23T23:13:53.021Z,12.20
2023-03-23T23:18:56.950Z,12.20
2023-03-23T23:24:01.966Z,12.20
2023-03-23T23:29:05.606Z,12.10
2023-03-23T23:34:09.387Z,12.00
2023-03-23T23:39:14.546Z,12.10
2023-03-23T23:44:18.269Z,12.30
2023-03-23T23:49:23.331Z,12.40
2023-03-23T23:54:30.532Z,12.50
2023-03-23T23:59:33.952Z,12.60
